createdAt,value
2018-01-15T00:00:23.707Z,4.50
2018-01-15T00:02:51.990Z,4.50
2018-01-15T00:05:20.400Z,4.50
2018-01-15T00:07:49.114Z,4.50
2018-01-15T00:10:17.392Z,4.50
2018-01-15T00:12:46.451Z,4.50
2018-01-15T00:15:14.762Z,4.50
2018-01-15T00:17:43.062Z,4.40
2018-01-15T00:20:12.136Z,4.40
2018-01-15T00:22:41.197Z,4.40
2018-01-15T00:25:09.897Z,4.40
2018-01-15T00:27:38.257Z,4.40
2018-01-15T00:30:06.579Z,4.40
2018-01-15T00:32:35.646Z,4.30
2018-01-15T00:35:03.902Z,4.30
2018-01-15T00:37:32.604Z,4.30
2018-01-15T00:40:01.417Z,4.30
2018-01-15T00:42:29.684Z,4.40
2018-01-15T00:44:57.998Z,4.30
2018-01-15T00:47:26.341Z,4.30
2018-01-15T00:49:54.667Z,4.40
2018-01-15T00:52:22.956Z,4.40
2018-01-15T00:54:51.242Z,4.40
2018-01-15T00:57:19.523Z,4.40
2018-01-15T00:59:48.135Z,4.30
2018-01-15T01:02:16.404Z,4.40
2018-01-15T01:04:44.686Z,4.40
2018-01-15T01:07:12.988Z,4.40
2018-01-15T01:09:41.232Z,4.40
2018-01-15T01:12:09.601Z,4.30
2018-01-15T01:14:37.862Z,4.30
2018-01-15T01:17:06.515Z,4.30
2018-01-15T01:19:34.766Z,4.40
2018-01-15T01:22:03.022Z,4.40
2018-01-15T01:24:31.365Z,4.40
2018-01-15T01:26:59.692Z,4.40
2018-01-15T01:29:28.001Z,4.30
2018-01-15T01:31:57.068Z,4.30
2018-01-15T01:34:25.654Z,4.30
2018-01-15T01:36:53.961Z,4.30
2018-01-15T01:39:22.985Z,4.30
2018-01-15T01:41:51.331Z,4.30
2018-01-15T01:44:19.606Z,4.30
2018-01-15T01:46:47.908Z,4.30
2018-01-15T01:49:16.182Z,4.30
2018-01-15T01:51:45.245Z,4.30
2018-01-15T01:54:27.959Z,4.30
2018-01-15T01:56:56.511Z,4.30
2018-01-15T01:59:24.786Z,4.30
2018-01-15T02:01:53.130Z,4.30
2018-01-15T02:04:22.172Z,4.30
2018-01-15T02:06:51.297Z,4.30
2018-01-15T02:09:19.591Z,4.30
2018-01-15T02:11:48.837Z,4.30
2018-01-15T02:14:17.110Z,4.30
2018-01-15T02:16:45.561Z,4.30
2018-01-15T02:19:14.716Z,4.30
2018-01-15T02:21:42.982Z,4.30
2018-01-15T02:24:11.267Z,4.30
2018-01-15T02:26:39.550Z,4.30
2018-01-15T02:29:07.864Z,4.30
2018-01-15T02:31:37.257Z,4.20
2018-01-15T02:34:05.520Z,4.20
2018-01-15T02:36:34.556Z,4.20
2018-01-15T02:39:02.861Z,4.20
2018-01-15T02:41:31.153Z,4.20
2018-01-15T02:43:59.452Z,4.30
2018-01-15T02:46:27.801Z,4.20
2018-01-15T02:48:56.096Z,4.20
2018-01-15T02:51:24.446Z,4.20
2018-01-15T02:53:53.015Z,4.20
2018-01-15T02:56:21.283Z,4.20
2018-01-15T02:58:49.592Z,4.20
2018-01-15T03:01:17.906Z,4.20
2018-01-15T03:03:46.188Z,4.20
2018-01-15T03:06:14.523Z,4.00
2018-01-15T03:08:42.807Z,4.30
2018-01-15T03:11:11.216Z,4.30
2018-01-15T03:13:39.551Z,4.30
2018-01-15T03:16:08.221Z,4.30
2018-01-15T03:18:37.312Z,4.30
2018-01-15T03:21:05.624Z,4.30
2018-01-15T03:23:33.950Z,4.30
2018-01-15T03:26:02.234Z,4.30
2018-01-15T03:28:31.295Z,4.20
2018-01-15T03:30:59.599Z,4.20
2018-01-15T03:33:28.989Z,4.20
2018-01-15T03:35:57.277Z,4.20
2018-01-15T03:38:25.655Z,4.30
2018-01-15T03:40:53.953Z,4.20
2018-01-15T03:43:23.022Z,4.30
2018-01-15T03:45:51.370Z,4.30
2018-01-15T03:48:19.679Z,4.30
2018-01-15T03:50:47.996Z,4.30
2018-01-15T03:53:16.292Z,4.30
2018-01-15T03:55:44.629Z,4.30
2018-01-15T03:58:12.902Z,4.20
2018-01-15T04:00:41.152Z,4.20
2018-01-15T04:03:09.453Z,4.20
2018-01-15T04:05:37.825Z,4.20
2018-01-15T04:08:06.141Z,4.20
2018-01-15T04:10:34.463Z,4.20
2018-01-15T04:13:02.787Z,4.20
2018-01-15T04:15:31.817Z,4.20
2018-01-15T04:18:00.440Z,4.10
2018-01-15T04:20:28.700Z,4.10
2018-01-15T04:22:56.967Z,4.10
2018-01-15T04:25:25.861Z,4.10
2018-01-15T04:27:54.181Z,4.00
2018-01-15T04:30:22.550Z,4.00
2018-01-15T04:32:50.827Z,3.90
2018-01-15T04:35:19.638Z,3.90
2018-01-15T04:37:48.697Z,3.80
2018-01-15T04:40:17.007Z,3.70
2018-01-15T04:42:46.118Z,3.60
2018-01-15T04:45:14.387Z,3.60
2018-01-15T04:47:44.067Z,3.60
2018-01-15T04:50:12.336Z,3.50
2018-01-15T04:52:40.673Z,3.50
2018-01-15T04:55:08.993Z,3.50
2018-01-15T04:57:37.687Z,3.40
2018-01-15T05:00:05.998Z,3.40
2018-01-15T05:02:34.411Z,3.40
2018-01-15T05:05:02.741Z,3.30
2018-01-15T05:07:31.008Z,3.30
2018-01-15T05:09:59.298Z,3.30
2018-01-15T05:12:28.336Z,3.20
2018-01-15T05:14:56.633Z,3.20
2018-01-15T05:17:24.898Z,3.20
2018-01-15T05:19:53.521Z,3.20
2018-01-15T05:22:21.868Z,3.20
2018-01-15T05:24:50.207Z,3.20
2018-01-15T05:27:18.578Z,3.10
2018-01-15T05:29:47.889Z,3.10
2018-01-15T05:32:16.937Z,3.00
2018-01-15T05:34:45.255Z,3.00
2018-01-15T05:37:14.313Z,3.00
2018-01-15T05:39:43.359Z,3.00
2018-01-15T05:42:12.085Z,2.90
2018-01-15T05:44:40.347Z,2.90
2018-01-15T05:47:08.664Z,2.90
2018-01-15T05:49:40.437Z,2.90
2018-01-15T05:52:08.712Z,2.80
2018-01-15T05:54:37.076Z,2.80
2018-01-15T05:57:05.326Z,2.80
2018-01-15T05:59:34.159Z,2.80
2018-01-15T06:02:02.423Z,2.70
2018-01-15T06:04:30.718Z,2.70
2018-01-15T06:06:59.054Z,2.70
2018-01-15T06:09:27.461Z,2.70
2018-01-15T06:11:55.753Z,2.70
2018-01-15T06:14:24.006Z,2.70
2018-01-15T06:16:52.345Z,2.60
2018-01-15T06:19:20.642Z,2.70
2018-01-15T06:21:48.926Z,2.60
2018-01-15T06:24:17.214Z,2.60
2018-01-15T06:26:45.479Z,2.60
2018-01-15T06:29:13.772Z,2.60
2018-01-15T06:31:43.771Z,2.60
2018-01-15T06:34:12.086Z,2.50
2018-01-15T06:36:40.358Z,2.50
2018-01-15T06:39:09.044Z,2.50
2018-01-15T06:41:38.056Z,2.50
2018-01-15T06:44:07.116Z,2.50
2018-01-15T06:46:35.478Z,2.50
2018-01-15T06:49:03.758Z,2.50
2018-01-15T06:51:32.072Z,2.50
2018-01-15T06:54:00.376Z,2.50
2018-01-15T06:56:29.598Z,2.50
2018-01-15T06:58:57.865Z,2.40
2018-01-15T07:01:26.154Z,2.40
2018-01-15T07:03:54.448Z,2.40
2018-01-15T07:06:22.735Z,2.40
2018-01-15T07:08:51.821Z,2.50
2018-01-15T07:11:20.098Z,2.40
2018-01-15T07:13:48.422Z,2.40
2018-01-15T07:16:16.752Z,2.40
2018-01-15T07:18:45.046Z,2.40
2018-01-15T07:21:13.333Z,2.50
2018-01-15T07:23:41.599Z,2.50
2018-01-15T07:26:09.887Z,2.40
2018-01-15T07:28:38.167Z,2.40
2018-01-15T07:31:06.459Z,2.40
2018-01-15T07:33:35.329Z,2.50
2018-01-15T07:36:03.647Z,2.50
2018-01-15T07:38:32.679Z,2.50
2018-01-15T07:41:01.546Z,2.50
2018-01-15T07:43:30.676Z,2.50
2018-01-15T07:45:58.935Z,2.50
2018-01-15T07:48:27.221Z,2.50
2018-01-15T07:50:55.495Z,2.50
2018-01-15T07:53:23.884Z,2.50
2018-01-15T07:55:52.178Z,2.60
2018-01-15T07:58:21.000Z,2.60
2018-01-15T08:00:49.380Z,2.60
2018-01-15T08:03:17.680Z,2.60
2018-01-15T08:05:46.767Z,2.70
2018-01-15T08:08:15.791Z,2.70
2018-01-15T08:10:44.105Z,2.70
2018-01-15T08:13:12.387Z,2.70
2018-01-15T08:15:40.697Z,2.70
2018-01-15T08:18:10.422Z,2.80
2018-01-15T08:20:38.708Z,2.80
2018-01-15T08:23:07.035Z,2.80
2018-01-15T08:25:35.303Z,2.80
2018-01-15T08:28:04.096Z,2.80
2018-01-15T08:30:32.372Z,2.90
2018-01-15T08:33:00.697Z,2.90
2018-01-15T08:35:28.977Z,3.00
2018-01-15T08:37:58.783Z,3.00
2018-01-15T08:40:27.820Z,3.10
2018-01-15T08:42:56.106Z,3.10
2018-01-15T08:45:24.477Z,3.10
2018-01-15T08:47:52.763Z,3.10
2018-01-15T08:50:21.043Z,3.20
2018-01-15T08:52:49.323Z,3.20
2018-01-15T08:55:17.669Z,3.20
2018-01-15T08:57:46.702Z,3.30
2018-01-15T09:00:14.998Z,3.20
2018-01-15T09:02:43.332Z,3.30
2018-01-15T09:05:11.599Z,3.30
2018-01-15T09:07:39.908Z,3.40
2018-01-15T09:10:08.218Z,3.40
2018-01-15T09:12:36.521Z,3.50
2018-01-15T09:15:04.816Z,3.50
2018-01-15T09:17:33.146Z,3.50
2018-01-15T09:20:01.492Z,3.50
2018-01-15T09:22:29.749Z,3.60
2018-01-15T09:24:58.052Z,3.60
2018-01-15T09:27:26.369Z,3.60
2018-01-15T09:29:54.687Z,3.60
2018-01-15T09:32:22.970Z,3.70
2018-01-15T09:34:51.301Z,3.70
2018-01-15T09:37:19.585Z,3.70
2018-01-15T09:39:48.789Z,3.80
2018-01-15T09:42:17.857Z,3.80
2018-01-15T09:44:46.672Z,3.80
2018-01-15T09:47:15.015Z,3.80
2018-01-15T09:49:43.340Z,3.90
2018-01-15T09:52:12.407Z,3.80
2018-01-15T09:54:40.725Z,3.90
2018-01-15T09:57:08.994Z,3.90
2018-01-15T09:59:38.041Z,3.90
2018-01-15T10:02:06.307Z,3.90
2018-01-15T10:04:34.714Z,3.90
2018-01-15T10:07:03.066Z,4.00
2018-01-15T10:09:31.390Z,4.10
2018-01-15T10:11:59.699Z,4.00
2018-01-15T10:14:28.060Z,4.10
2018-01-15T10:16:56.464Z,4.10
2018-01-15T10:19:24.736Z,4.20
2018-01-15T10:21:53.202Z,4.20
2018-01-15T10:24:22.234Z,4.20
2018-01-15T10:26:50.536Z,4.20
2018-01-15T10:29:18.838Z,4.30
2018-01-15T10:31:47.132Z,4.30
2018-01-15T10:34:16.479Z,4.30
2018-01-15T10:36:44.735Z,4.30
2018-01-15T10:39:13.156Z,4.30
2018-01-15T10:41:41.466Z,4.30
2018-01-15T10:44:10.516Z,4.40
2018-01-15T10:46:38.829Z,4.40
2018-01-15T10:49:07.106Z,4.40
2018-01-15T10:51:35.412Z,4.40
2018-01-15T10:54:03.780Z,4.40
2018-01-15T10:56:32.835Z,4.40
2018-01-15T10:59:01.988Z,4.40
2018-01-15T11:01:30.297Z,4.50
2018-01-15T11:03:58.571Z,4.40
2018-01-15T11:06:26.869Z,4.50
2018-01-15T11:08:55.171Z,4.50
2018-01-15T11:11:23.432Z,4.50
2018-01-15T11:13:51.764Z,4.50
2018-01-15T11:16:20.127Z,4.50
2018-01-15T11:18:48.426Z,4.50
2018-01-15T11:21:16.713Z,4.60
2018-01-15T11:23:44.969Z,4.60
2018-01-15T11:26:13.252Z,4.60
2018-01-15T11:28:42.286Z,4.70
2018-01-15T11:31:10.586Z,4.60
2018-01-15T11:33:38.891Z,4.70
2018-01-15T11:36:07.193Z,4.70
2018-01-15T11:38:35.458Z,4.70
2018-01-15T11:41:03.742Z,4.70
2018-01-15T11:43:32.002Z,4.70
2018-01-15T11:46:01.855Z,4.70
2018-01-15T11:48:30.104Z,4.70
2018-01-15T11:50:58.408Z,4.70
2018-01-15T11:53:26.684Z,5.00
2018-01-15T11:55:55.053Z,5.40
2018-01-15T11:58:23.337Z,6.20
2018-01-15T12:00:52.388Z,7.60
2018-01-15T12:03:20.726Z,7.60
2018-01-15T12:05:48.996Z,8.20
2018-01-15T12:08:17.303Z,8.80
2018-01-15T12:10:45.617Z,9.30
2018-01-15T12:13:13.977Z,9.80
2018-01-15T12:15:43.034Z,10.50
2018-01-15T12:18:11.338Z,10.50
2018-01-15T12:20:39.632Z,11.10
2018-01-15T12:23:08.663Z,12.20
2018-01-15T12:25:37.001Z,12.20
2018-01-15T12:28:05.286Z,12.70
2018-01-15T12:30:34.354Z,13.90
2018-01-15T12:33:03.420Z,14.50
2018-01-15T12:35:31.714Z,14.40
2018-01-15T12:38:00.034Z,14.80
2018-01-15T12:40:29.085Z,15.60
2018-01-15T12:42:57.411Z,15.50
2018-01-15T12:45:26.461Z,15.60
2018-01-15T12:47:54.785Z,15.50
2018-01-15T12:50:23.844Z,15.60
2018-01-15T12:52:52.150Z,15.60
2018-01-15T12:55:20.494Z,15.70
2018-01-15T12:57:49.109Z,15.80
2018-01-15T13:00:17.453Z,15.90
2018-01-15T13:02:45.731Z,16.00
2018-01-15T13:05:14.020Z,15.40
2018-01-15T13:07:54.156Z,14.60
2018-01-15T13:10:22.432Z,13.50
2018-01-15T13:12:51.042Z,12.30
2018-01-15T13:15:19.320Z,11.30
2018-01-15T13:17:47.640Z,10.40
2018-01-15T13:20:15.917Z,9.80
2018-01-15T13:22:45.005Z,8.90
2018-01-15T13:25:14.045Z,8.80
2018-01-15T13:27:42.322Z,8.80
2018-01-15T13:30:10.624Z,8.70
2018-01-15T13:32:38.896Z,8.80
2018-01-15T13:35:07.184Z,8.90
2018-01-15T13:37:35.493Z,9.10
2018-01-15T13:40:03.792Z,9.70
2018-01-15T13:42:32.075Z,10.20
2018-01-15T13:45:00.714Z,10.10
2018-01-15T13:47:28.989Z,9.50
2018-01-15T13:49:57.284Z,9.00
2018-01-15T13:52:27.258Z,7.90
2018-01-15T13:54:55.544Z,7.90
2018-01-15T13:57:23.853Z,7.40
2018-01-15T13:59:52.936Z,6.80
2018-01-15T14:02:21.224Z,6.60
2018-01-15T14:04:50.278Z,6.30
2018-01-15T14:07:18.541Z,6.30
2018-01-15T14:09:46.829Z,6.10
2018-01-15T14:12:15.111Z,5.90
2018-01-15T14:14:43.426Z,5.70
2018-01-15T14:17:11.705Z,5.60
2018-01-15T14:19:40.006Z,5.50
2018-01-15T14:22:08.296Z,5.40
2018-01-15T14:24:36.580Z,5.30
2018-01-15T14:27:04.965Z,5.20
2018-01-15T14:29:33.256Z,5.10
2018-01-15T14:32:02.385Z,5.00
2018-01-15T14:34:31.381Z,4.90
2018-01-15T14:36:59.668Z,4.90
2018-01-15T14:39:27.983Z,4.80
2018-01-15T14:41:56.350Z,4.80
2018-01-15T14:44:24.717Z,4.80
2018-01-15T14:46:53.872Z,4.80
2018-01-15T14:49:22.813Z,4.70
2018-01-15T14:51:52.753Z,4.70
2018-01-15T14:54:21.851Z,4.80
2018-01-15T14:56:50.114Z,4.70
2018-01-15T14:59:18.442Z,4.70
2018-01-15T15:01:46.765Z,4.70
2018-01-15T15:04:15.811Z,4.60
2018-01-15T15:06:44.120Z,4.60
2018-01-15T15:09:12.414Z,4.60
2018-01-15T15:11:41.461Z,4.60
2018-01-15T15:14:10.935Z,4.60
2018-01-15T15:16:39.212Z,4.50
2018-01-15T15:19:07.547Z,4.50
2018-01-15T15:21:35.865Z,4.50
2018-01-15T15:24:04.180Z,4.40
2018-01-15T15:26:32.461Z,4.30
2018-01-15T15:29:01.756Z,4.00
2018-01-15T15:31:33.576Z,4.10
2018-01-15T15:34:01.915Z,4.00
2018-01-15T15:36:30.217Z,3.90
2018-01-15T15:38:59.285Z,3.80
2018-01-15T15:41:28.448Z,3.70
2018-01-15T15:43:56.820Z,3.70
2018-01-15T15:46:25.235Z,3.60
2018-01-15T15:48:53.581Z,3.50
2018-01-15T15:51:22.418Z,3.50
2018-01-15T15:53:50.882Z,3.50
2018-01-15T15:56:20.083Z,3.40
2018-01-15T15:58:48.374Z,3.40
2018-01-15T16:01:17.080Z,3.30
2018-01-15T16:03:45.451Z,3.30
2018-01-15T16:06:13.803Z,3.30
2018-01-15T16:08:42.167Z,3.20
2018-01-15T16:11:10.489Z,3.20
2018-01-15T16:13:38.839Z,3.20
2018-01-15T16:16:07.200Z,3.20
2018-01-15T16:18:35.683Z,3.20
2018-01-15T16:21:07.789Z,3.20
2018-01-15T16:23:36.787Z,3.10
2018-01-15T16:26:05.137Z,3.10
2018-01-15T16:28:33.478Z,3.10
2018-01-15T16:31:01.793Z,3.00
2018-01-15T16:33:30.054Z,3.10
2018-01-15T16:35:58.386Z,3.00
2018-01-15T16:38:26.688Z,3.00
2018-01-15T16:40:55.015Z,3.00
2018-01-15T16:43:23.341Z,3.00
2018-01-15T16:45:51.722Z,3.00
2018-01-15T16:48:20.064Z,2.90
2018-01-15T16:50:48.531Z,3.00
2018-01-15T16:53:16.908Z,3.00
2018-01-15T16:55:45.224Z,3.00
2018-01-15T16:58:13.562Z,3.00
2018-01-15T17:00:41.995Z,3.00
2018-01-15T17:03:10.275Z,3.00
2018-01-15T17:05:39.409Z,3.00
2018-01-15T17:08:07.677Z,3.00
2018-01-15T17:10:35.989Z,2.90
2018-01-15T17:13:04.289Z,2.90
2018-01-15T17:15:32.606Z,2.90
2018-01-15T17:18:00.970Z,2.90
2018-01-15T17:20:30.011Z,2.90
2018-01-15T17:22:58.554Z,2.80
2018-01-15T17:25:27.625Z,2.90
2018-01-15T17:27:55.917Z,2.80
2018-01-15T17:30:25.174Z,2.90
2018-01-15T17:32:53.459Z,2.90
2018-01-15T17:35:21.822Z,3.00
2018-01-15T17:37:50.129Z,3.00
2018-01-15T17:40:18.468Z,3.00
2018-01-15T17:42:46.792Z,3.00
2018-01-15T17:58:06.800Z,3.20
2018-01-15T18:00:36.154Z,3.30
2018-01-15T18:03:04.525Z,3.30
2018-01-15T18:05:32.842Z,3.30
2018-01-15T18:08:01.916Z,3.30
2018-01-15T18:10:30.264Z,3.30
2018-01-15T18:12:58.639Z,3.30
2018-01-15T18:15:26.995Z,3.30
2018-01-15T18:17:55.267Z,3.30
2018-01-15T18:20:24.362Z,3.30
2018-01-15T18:22:53.429Z,3.30
2018-01-15T18:25:21.726Z,3.30
2018-01-15T18:27:50.052Z,3.30
2018-01-15T18:30:18.329Z,3.30
2018-01-15T18:32:46.737Z,3.30
2018-01-15T18:35:15.011Z,3.20
2018-01-15T18:37:43.357Z,3.20
2018-01-15T18:40:12.396Z,3.20
2018-01-15T18:42:41.576Z,3.20
2018-01-15T18:45:10.062Z,3.10
2018-01-15T18:47:38.959Z,3.10
2018-01-15T18:50:07.983Z,3.10
2018-01-15T18:52:37.032Z,3.10
2018-01-15T18:55:05.381Z,3.10
2018-01-15T18:57:34.427Z,3.10
2018-01-15T19:00:02.719Z,3.00
2018-01-15T19:02:31.083Z,3.00
2018-01-15T19:04:59.575Z,3.00
2018-01-15T19:07:28.010Z,3.00
2018-01-15T19:09:56.328Z,3.00
2018-01-15T19:12:25.652Z,3.00
2018-01-15T19:14:53.957Z,3.00
2018-01-15T19:17:23.072Z,2.90
2018-01-15T19:19:51.413Z,2.90
2018-01-15T19:22:19.710Z,2.90
2018-01-15T19:24:48.672Z,2.90
2018-01-15T19:27:17.887Z,2.90
2018-01-15T19:29:46.468Z,2.90
2018-01-15T19:32:15.831Z,2.80
2018-01-15T19:34:51.842Z,2.80
2018-01-15T19:51:10.217Z,2.90
2018-01-15T19:53:44.274Z,2.90
2018-01-15T19:56:18.374Z,2.90
2018-01-15T19:58:53.371Z,2.90
2018-01-15T20:01:27.436Z,2.80
2018-01-15T20:04:01.447Z,2.80
2018-01-15T20:06:35.642Z,2.80
2018-01-15T20:09:09.625Z,2.70
2018-01-15T20:11:38.057Z,2.70
2018-01-15T20:14:06.351Z,2.70
2018-01-15T20:16:34.629Z,2.60
2018-01-15T20:19:03.774Z,2.60
2018-01-15T20:21:32.069Z,2.50
2018-01-15T20:24:00.432Z,2.50
2018-01-15T20:26:29.023Z,2.50
2018-01-15T20:28:57.877Z,2.50
2018-01-15T20:31:26.792Z,2.40
2018-01-15T20:33:55.434Z,2.50
2018-01-15T20:36:23.964Z,2.50
2018-01-15T20:38:52.591Z,2.50
2018-01-15T20:41:21.197Z,2.50
2018-01-15T20:43:50.540Z,2.50
2018-01-15T20:46:18.923Z,2.50
2018-01-15T20:48:47.342Z,2.60
2018-01-15T20:51:15.871Z,2.60
2018-01-15T20:53:44.295Z,2.60
2018-01-15T20:56:12.795Z,2.60
2018-01-15T20:58:41.937Z,2.60
2018-01-15T21:01:10.206Z,2.60
2018-01-15T21:03:38.589Z,2.60
2018-01-15T21:06:06.908Z,2.60
2018-01-15T21:08:35.508Z,2.60
2018-01-15T21:11:03.816Z,2.60
2018-01-15T21:13:32.112Z,2.60
2018-01-15T21:16:00.423Z,2.60
2018-01-15T21:18:28.780Z,2.60
2018-01-15T21:20:57.174Z,2.70
2018-01-15T21:23:25.497Z,2.60
2018-01-15T21:25:54.713Z,2.60
2018-01-15T21:28:23.047Z,2.60
2018-01-15T21:30:51.483Z,2.60
2018-01-15T21:33:19.918Z,2.70
2018-01-15T21:35:48.275Z,2.70
2018-01-15T21:38:16.553Z,2.70
2018-01-15T21:40:44.899Z,2.70
2018-01-15T21:43:13.961Z,2.70
2018-01-15T21:45:42.277Z,2.60
2018-01-15T21:48:10.608Z,2.70
2018-01-15T21:50:39.730Z,2.70
2018-01-15T21:53:08.826Z,2.60
2018-01-15T21:55:38.272Z,2.70
2018-01-15T21:58:06.666Z,2.60
2018-01-15T22:00:34.952Z,2.60
2018-01-15T22:03:03.256Z,2.60
2018-01-15T22:05:31.560Z,2.60
2018-01-15T22:07:59.862Z,2.70
2018-01-15T22:10:28.186Z,2.70
2018-01-15T22:12:57.289Z,2.70
2018-01-15T22:15:26.397Z,2.80
2018-01-15T22:17:55.442Z,2.80
2018-01-15T22:20:23.831Z,2.70
2018-01-15T22:22:52.115Z,2.80
2018-01-15T22:25:20.476Z,2.80
2018-01-15T22:27:48.820Z,2.80
2018-01-15T22:30:17.163Z,2.80
2018-01-15T22:32:45.504Z,2.80
2018-01-15T22:35:14.566Z,2.70
2018-01-15T22:37:43.393Z,2.70
2018-01-15T22:40:11.669Z,2.70
2018-01-15T22:42:40.003Z,2.70
2018-01-15T22:45:09.152Z,2.80
2018-01-15T22:47:37.433Z,2.70
2018-01-15T22:50:05.805Z,2.80
2018-01-15T22:52:34.118Z,2.80
2018-01-15T22:55:02.440Z,2.80
2018-01-15T22:57:30.717Z,2.80
2018-01-15T22:59:59.038Z,2.80
2018-01-15T23:02:27.333Z,2.80
2018-01-15T23:04:55.646Z,2.80
2018-01-15T23:07:24.298Z,2.80
2018-01-15T23:09:52.611Z,2.70
2018-01-15T23:12:20.910Z,2.80
2018-01-15T23:14:49.266Z,2.80
2018-01-15T23:17:17.537Z,2.80
2018-01-15T23:19:45.841Z,2.80
2018-01-15T23:22:14.118Z,2.80
2018-01-15T23:24:42.490Z,2.80
2018-01-15T23:27:10.786Z,2.80
2018-01-15T23:29:39.068Z,2.80
2018-01-15T23:32:07.388Z,2.80
2018-01-15T23:34:36.452Z,2.80
2018-01-15T23:37:04.745Z,2.70
2018-01-15T23:39:33.015Z,2.80
2018-01-15T23:42:01.369Z,2.70
2018-01-15T23:44:29.664Z,2.80
2018-01-15T23:46:57.941Z,2.70
2018-01-15T23:49:26.230Z,2.70
2018-01-15T23:51:54.522Z,2.70
2018-01-15T23:54:33.521Z,2.70
2018-01-15T23:57:01.824Z,2.70
2018-01-15T23:59:30.085Z,2.70
